Asan, Guam
Current Conditions -  °F | °C
As of 5:54 PM on Sunday 23 Nov 2014 (Local Time) from PGUM Reporting Station
Scattered Clouds Scattered Clouds  
Wind Chill: 79°   Ceiling: Unl
Heat Index: 83°   Visibility: 10mi
Dew Point: 75°   Wind: 3mph
Humidity: 88%   Direction: 120°ESE
Pressure: 29.87"   Gusts: NA
Location:  13.47°N, 144.71°E
Report Text: PGUM 230754Z 12003KT 10SM FEW018 SCT040 26/24 A2987 RMK AO2 SLP106 CB DSNT N MOV W T02610239
Loading
Personal Weather Stations






























Interactive Weather Map New forecast layout! Learn more

10-Day Weather Forecast

Advertisements
Track Severe Weather on mobile